AirNav   Free Bose Alto or Rondo audio sunglasses
 
 1050 users online  

02T Wise River Airport
Wise River, Montana, USA

GOING TO WISE RIVER?


FAA INFORMATION EFFECTIVE 05 NOVEMBER 2020

Location

FAA Identifier: 02T
Lat/Long: 45-46-12.1000N 112-58-49.7000W
45-46.201667N 112-58.828333W
45.7700278,-112.9804722
(estimated)
Elevation: 5830 ft. / 1777 m (estimated)
Variation: 17E (1985)
From city: 2 miles SW of WISE RIVER, MT
Time zone: UTC -7 (UTC -6 during Daylight Saving Time)
Zip code: 59762

Airport Operations

Airport use: Open to the public
Activation date: 11/1989
Control tower: no
ARTCC: SALT LAKE CITY CENTER
FSS: GREAT FALLS FLIGHT SERVICE STATION
NOTAMs facility: GTF (NOTAM-D service available)
Attendance: UNATNDD
Wind indicator: yes
Segmented circle: yes

Airport Communications

CTAF: 122.9

Nearby radio navigation aids

VOR radial/distance  VOR name  Freq  Var
CPNr196/18.5COPPERTOWN VOR/DME111.6016E
HIAr243/34.4WHITEHALL VOR/DME113.7018E
DLNr312/36.2DILLON VOR/DME113.0018E

Airport Services

Parking: tiedowns

Runway Information

Runway 2/20

Dimensions: 4050 x 60 ft. / 1234 x 18 m
Surface: turf/dirt, in good condition
Runway edge markings: RED CONES ON EACH RY END MARK THRESHOLDS.
RUNWAY 2  RUNWAY 20
Latitude: 45-45.945238N45-46.458817N
Longitude: 112-59.130995W112-58.523860W
Elevation: 5830.0 ft.5779.0 ft.
Traffic pattern: rightleft
Runway heading: 023 magnetic, 040 true203 magnetic, 220 true

Airport Ownership and Management from official FAA records

Ownership: Publicly-owned
Owner: BEAVERHEAD COUNTY
2 SO PACIFIC ST
DILLON, MT 59725-2799
Phone 406-683-3700
Manager: YVONNE JONES
2400 AIRPORT RD
DILLON , MT 59725
Phone (406) 832-3130

Airport Operational Statistics

Aircraft operations: 50/year *
50% transient general aviation
50% local general aviation
* for 12-month period ending 25 June 2019

Additional Remarks

ARPT NOT PLOWED WINTER MONTHS.
FOR CD CTC SALT LAKE ARTCC AT 801-320-2568.

Instrument Procedures

There are no published instrument procedures at 02T.

Some nearby airports with instrument procedures:

KBTM - Bert Mooney Airport (23 nm NE)
3U3 - Bowman Field Airport (23 nm N)
7S1 - Twin Bridges Airport (32 nm SE)
KDLN - Dillon Airport (36 nm SE)
38S - Deer Lodge-City-County Airport (38 nm N)
 
Loc | Ops | Rwys | IFR | FBO | Links
Com | Nav | Svcs | Stats | Notes
Area around 02T (Wise River Airport)
 
Road maps at: MapQuest Bing Google
 
Aerial photo
No photo
 
Sectional chart

 
Airport distance calculator
Flying to Wise River Airport? Find the distance to fly.

From to 02T

Sunrise and sunset
Times for 24-Nov-2020
 Local
(UTC-7)
 Zulu
(UTC)
Morning civil twilight07:1314:13
Sunrise07:4614:46
Sunset16:5223:52
Evening civil twilight17:2500:25

Current date and time
Zulu (UTC)  24-Nov-2020 23:56:37
Local (UTC-7)  24-Nov-2020 16:56:37
 
METAR
KBTM 
23nm NE 
242253Z AUTO 33006KT 10SM CLR 03/M08 A2995 RMK AO2 SLP163 T00331078
K3U3 
23nm N 
242330Z AUTO 00000KT 10SM 00/M08 A2996
K7S1 
32nm SE 
242335Z AUTO 14010KT 10SM CLR 03/M09 A2998 RMK AO2
KDLN 
36nm SE 
242253Z AUTO 22012KT 10SM CLR 03/M09 A2996 RMK AO2 SLP171 T00331089
K38S 
38nm N 
242330Z AUTO 29005KT 10SM 00/M06 A2999
TAF
KBTM 
23nm NE 
241720Z 2418/2518 VRB03KT P6SM OVC050 FM241900 24005KT P6SM SCT100 FM251200 21008G16KT P6SM BKN100 FM251500 24012G20KT 3SM -SN OVC030
NOTAMs
Click for the latest NOTAMs
NOTAMs are issued by the DoD/FAA and will open in a separate window not controlled by AirNav.

 

 
 

Would you like to see your business listed on this page?

 If your business provides an interesting product or service to pilots, flight crews, aircraft, or users of the Wise River Airport, you should consider listing it here.  To start the listing process, click on the button below
 
Add a business
 

Other Pages about Wise River Airport

Update a link
 
Copyright © AirNav, LLC. All rights reserved. Privacy Policy  Contact